Time;durP1;ratioP1;P1;durP2;ratioP2;P2;SDS_P1;SDS_P2;PMS_P1;PMS_P2;Temp;Humidity;BMP_temperature;BMP_pressure;BME280_temperature;BME280_humidity;BME280_pressure;Samples;Min_cycle;Max_cycle;Signal;HPM_P1;HPM_P2
2022/10/25 00:01:23;;;;;;;40.17;15.28;;;;;;;10.94;100.00;101483.36;1494116;96;21068;-85
2022/10/25 00:03:50;;;;;;;34.90;14.95;;;;;;;10.98;100.00;101479.68;1482590;95;21744;-84
2022/10/25 00:06:16;;;;;;;31.90;14.83;;;;;;;11.02;100.00;101479.47;1510510;94;21090;-86
2022/10/25 00:08:42;;;;;;;32.83;14.38;;;;;;;11.04;100.00;101474.67;1517817;94;21066;-87
2022/10/25 00:11:16;;;;;;;33.00;15.23;;;;;;;11.06;100.00;101469.83;1559871;91;21586;-92
2022/10/25 00:13:42;;;;;;;29.57;13.45;;;;;;;11.07;100.00;101469.60;1515677;93;22425;-86
2022/10/25 00:16:21;;;;;;;30.35;13.78;;;;;;;11.09;100.00;101468.03;1515638;93;21070;-90
2022/10/25 00:18:48;;;;;;;34.60;14.90;;;;;;;11.11;100.00;101464.53;1515549;93;21107;-86
2022/10/25 00:21:14;;;;;;;34.65;13.98;;;;;;;11.05;100.00;101462.27;1515634;93;21011;-86
2022/10/25 00:23:40;;;;;;;31.93;14.65;;;;;;;11.08;100.00;101456.93;1518977;93;20933;-85
2022/10/25 00:26:08;;;;;;;34.18;14.38;;;;;;;11.09;100.00;101453.19;1524155;90;21094;-86
2022/10/25 00:28:34;;;;;;;35.25;14.73;;;;;;;11.11;100.00;101453.75;1585303;89;21117;-86
2022/10/25 00:31:07;;;;;;;32.25;13.83;;;;;;;11.15;100.00;101458.97;1591439;89;21620;-85
2022/10/25 00:33:35;;;;;;;36.13;15.18;;;;;;;11.17;100.00;101465.45;1587292;90;21085;-86
2022/10/25 00:36:14;;;;;;;32.30;13.95;;;;;;;11.17;100.00;101454.66;1600043;89;22004;-86
2022/10/25 00:38:40;;;;;;;29.25;13.43;;;;;;;11.20;100.00;101453.64;1601840;89;21013;-85
2022/10/25 00:41:07;;;;;;;38.10;14.70;;;;;;;11.20;100.00;101445.55;1601909;89;21621;-86
2022/10/25 00:43:49;;;;;;;32.60;13.58;;;;;;;11.22;100.00;101443.97;1602040;89;21062;-86
2022/10/25 00:46:23;;;;;;;38.10;15.72;;;;;;;11.22;100.00;101442.08;1654210;86;21153;-85
2022/10/25 00:49:00;;;;;;;32.88;14.13;;;;;;;11.22;100.00;101447.48;1618920;88;21101;-84
2022/10/25 00:51:52;;;;;;;32.38;13.95;;;;;;;11.23;100.00;101439.66;1615638;88;21102;-85
2022/10/25 00:54:25;;;;;;;28.65;12.33;;;;;;;11.27;100.00;101437.32;1616401;88;21002;-86
2022/10/25 00:56:53;;;;;;;38.13;12.90;;;;;;;11.27;100.00;101440.83;1604911;89;21609;-84
2022/10/25 00:59:24;;;;;;;28.30;12.65;;;;;;;11.28;100.00;101433.55;1605128;89;21257;-83
2022/10/25 01:01:53;;;;;;;29.07;11.53;;;;;;;11.30;100.00;101436.30;1583712;89;21857;-85
2022/10/25 01:04:24;;;;;;;32.23;13.78;;;;;;;11.32;100.00;101434.69;1544471;92;21085;-83
2022/10/25 01:06:51;;;;;;;33.80;13.22;;;;;;;11.29;100.00;101439.22;1544609;92;21096;-83
2022/10/25 01:09:26;;;;;;;34.78;14.38;;;;;;;11.24;100.00;101433.22;1544491;92;21022;-85
2022/10/25 01:11:52;;;;;;;30.72;14.43;;;;;;;11.20;100.00;101431.24;1544614;91;21234;-85
2022/10/25 01:14:19;;;;;;;35.33;14.10;;;;;;;11.16;100.00;101432.80;1544695;92;21594;-90
2022/10/25 01:16:59;;;;;;;33.48;13.30;;;;;;;11.11;100.00;101425.42;1544687;92;21045;-85
2022/10/25 01:19:43;;;;;;;27.02;12.37;;;;;;;11.10;100.00;101425.14;1544873;92;21521;-85
2022/10/25 01:22:35;;;;;;;25.37;11.78;;;;;;;11.11;100.00;101420.84;1544471;92;21119;-86
2022/10/25 01:25:26;;;;;;;27.40;12.60;;;;;;;11.14;100.00;101420.35;1544799;92;21108;-85
2022/10/25 01:28:29;;;;;;;29.98;12.47;;;;;;;11.17;100.00;101417.70;1544513;92;21118;-86
2022/10/25 01:31:20;;;;;;;24.98;12.00;;;;;;;11.19;100.00;101420.98;1510103;95;21069;-85
2022/10/25 01:34:00;;;;;;;33.73;11.95;;;;;;;11.21;100.00;101417.52;1499703;94;21079;-86
2022/10/25 01:36:54;;;;;;;28.05;11.73;;;;;;;11.25;100.00;101420.01;1531387;93;21096;-85
2022/10/25 01:39:34;;;;;;;27.98;11.85;;;;;;;11.27;100.00;101431.92;1501199;93;22521;-83
2022/10/25 01:42:20;;;;;;;24.75;11.88;;;;;;;11.27;100.00;101440.83;1487490;96;22098;-84
2022/10/25 01:45:14;;;;;;;29.87;11.78;;;;;;;11.26;100.00;101435.66;1489958;93;22296;-85
2022/10/25 01:48:00;;;;;;;26.07;12.50;;;;;;;11.25;100.00;101439.44;1562618;91;21569;-84
2022/10/25 01:50:31;;;;;;;29.72;12.35;;;;;;;11.21;100.00;101433.71;1562484;90;21473;-86
2022/10/25 01:52:57;;;;;;;28.65;11.65;;;;;;;11.18;100.00;101434.20;1528498;91;21284;-86
2022/10/25 01:55:31;;;;;;;23.30;10.32;;;;;;;11.18;100.00;101426.61;1537457;91;21664;-85
2022/10/25 01:58:12;;;;;;;23.45;10.15;;;;;;;11.19;100.00;101425.03;1509687;93;21000;-86
2022/10/25 02:01:01;;;;;;;23.80;10.32;;;;;;;11.21;100.00;101434.25;1507726;94;21082;-85
2022/10/25 02:03:39;;;;;;;22.58;9.25;;;;;;;11.22;100.00;101430.48;1464396;96;21111;-84
2022/10/25 02:06:22;;;;;;;25.12;10.30;;;;;;;11.18;100.00;101424.75;1463050;96;21083;-84
2022/10/25 02:09:11;;;;;;;24.57;10.28;;;;;;;11.18;100.00;101423.91;1440275;99;21301;-85
2022/10/25 02:11:37;;;;;;;30.72;11.90;;;;;;;11.12;100.00;101423.84;1380904;103;21106;-83
2022/10/25 02:14:21;;;;;;;24.55;11.43;;;;;;;11.08;100.00;101421.86;1381199;103;21158;-84
2022/10/25 02:17:02;;;;;;;;;;;;;;;11.06;100.00;101421.27;1383272;103;22511;-86
2022/10/25 02:19:35;;;;;;;25.90;11.08;;;;;;;10.94;100.00;101410.55;1382421;102;20198;-90
2022/10/25 02:22:03;;;;;;;25.68;10.90;;;;;;;10.94;100.00;101413.78;1385838;103;21343;-90
2022/10/25 02:24:31;;;;;;;32.30;13.08;;;;;;;10.90;100.00;101426.94;1385991;103;21306;-83
2022/10/25 02:27:00;;;;;;;25.05;11.35;;;;;;;10.89;100.00;101437.44;1385970;103;21200;-84
2022/10/25 02:29:30;;;;;;;26.20;11.03;;;;;;;10.84;100.00;101436.80;1385929;103;21126;-85
2022/10/25 02:31:56;;;;;;;21.65;10.28;;;;;;;10.80;100.00;101437.00;1384908;103;21626;-85
2022/10/25 02:34:22;;;;;;;23.95;11.35;;;;;;;10.76;100.00;101439.88;1383734;103;21175;-83
2022/10/25 02:36:49;;;;;;;24.55;10.63;;;;;;;10.73;100.00;101442.23;1383596;103;21374;-89
2022/10/25 02:39:18;;;;;;;24.23;10.78;;;;;;;10.73;100.00;101443.59;1383601;103;21110;-84
2022/10/25 02:41:44;;;;;;;25.43;11.48;;;;;;;10.69;100.00;101439.20;1383539;103;21126;-85
2022/10/25 02:44:10;;;;;;;25.90;10.98;;;;;;;10.69;100.00;101436.52;1383709;103;21286;-85
2022/10/25 02:46:36;;;;;;;25.82;11.63;;;;;;;10.68;100.00;101433.54;1383895;103;21144;-85
2022/10/25 02:49:02;;;;;;;23.87;11.20;;;;;;;10.64;100.00;101437.75;1418004;96;21188;-90
2022/10/25 02:51:28;;;;;;;27.85;11.95;;;;;;;10.61;100.00;101430.95;1520768;94;21136;-87
2022/10/25 02:53:54;;;;;;;24.55;12.05;;;;;;;10.59;100.00;101425.52;1520652;93;21111;-84
2022/10/25 02:56:22;;;;;;;23.83;11.40;;;;;;;10.52;100.00;101424.31;1520591;93;21138;-83
2022/10/25 02:58:51;;;;;;;26.95;13.05;;;;;;;10.50;100.00;101422.41;1519192;94;21199;-85
2022/10/25 03:01:20;;;;;;;24.05;11.40;;;;;;;10.46;100.00;101419.87;1517124;94;21111;-84
2022/10/25 03:03:46;;;;;;;23.83;11.65;;;;;;;10.39;100.00;101418.67;1516837;94;21075;-84
2022/10/25 03:06:13;;;;;;;23.83;11.93;;;;;;;10.37;100.00;101422.12;1566022;89;21557;-84
2022/10/25 03:08:40;;;;;;;23.27;11.22;;;;;;;10.36;100.00;101420.50;1610362;89;21092;-83
2022/10/25 03:11:09;;;;;;;22.50;11.85;;;;;;;10.35;100.00;101420.22;1610400;87;21077;-85
2022/10/25 03:13:35;;;;;;;25.45;11.10;;;;;;;10.37;100.00;101416.73;1610160;89;21049;-84
2022/10/25 03:16:01;;;;;;;25.02;11.45;;;;;;;10.39;100.00;101416.52;1610261;87;21105;-89
2022/10/25 03:18:27;;;;;;;28.85;10.90;;;;;;;10.41;100.00;101421.11;1643083;84;21615;-85
2022/10/25 03:20:59;;;;;;;26.17;11.38;;;;;;;10.39;100.00;101411.94;1699023;83;21060;-84
2022/10/25 03:23:26;;;;;;;23.20;10.53;;;;;;;10.39;100.00;101423.25;1699038;84;21029;-84
2022/10/25 03:25:55;;;;;;;32.33;12.50;;;;;;;10.39;100.00;101411.94;1698761;83;21010;-83
2022/10/25 03:28:21;;;;;;;24.75;10.85;;;;;;;10.37;100.00;101420.77;1677457;85;21068;-85
2022/10/25 03:30:48;;;;;;;24.00;11.73;;;;;;;10.38;100.00;101421.09;1677495;84;21028;-85
2022/10/25 03:33:14;;;;;;;24.18;11.85;;;;;;;10.39;100.00;101409.24;1663125;85;21107;-84
2022/10/25 03:35:40;;;;;;;28.70;12.30;;;;;;;10.36;100.00;101408.91;1638384;85;21798;-83
2022/10/25 03:38:05;;;;;;;30.60;12.37;;;;;;;10.35;100.00;101405.40;1660834;86;20858;-83
2022/10/25 03:40:31;;;;;;;25.30;11.30;;;;;;;10.35;100.00;101409.44;1661007;86;21682;-84
2022/10/25 03:42:57;;;;;;;22.20;11.25;;;;;;;10.35;100.00;101414.83;1661048;86;20898;-85
2022/10/25 03:45:23;;;;;;;32.58;12.58;;;;;;;10.38;100.00;101413.51;1661037;86;21714;-83
2022/10/25 03:47:50;;;;;;;28.98;13.15;;;;;;;10.36;100.00;101409.72;1660946;86;21162;-83
2022/10/25 03:50:16;;;;;;;29.63;12.43;;;;;;;10.39;100.00;101415.16;1661011;86;20997;-85
2022/10/25 03:52:42;;;;;;;27.77;13.30;;;;;;;10.41;100.00;101404.44;1661002;86;21096;-84
2022/10/25 03:55:09;;;;;;;26.48;12.75;;;;;;;10.44;100.00;101408.01;1661006;86;21722;-85
2022/10/25 03:57:35;;;;;;;31.23;13.30;;;;;;;10.46;100.00;101402.36;1661340;86;21041;-84
2022/10/25 04:00:01;;;;;;;27.52;12.23;;;;;;;10.50;100.00;101401.34;1660917;86;21094;-85
2022/10/25 04:02:27;;;;;;;32.15;13.22;;;;;;;10.56;100.00;101404.43;1661078;86;21655;-85
2022/10/25 04:04:54;;;;;;;24.92;11.55;;;;;;;10.63;100.00;101395.16;1660965;86;21094;-84
2022/10/25 04:07:20;;;;;;;29.90;13.00;;;;;;;10.66;100.00;101398.72;1660894;86;21072;-86
2022/10/25 04:09:46;;;;;;;24.02;11.60;;;;;;;10.71;100.00;101406.10;1638541;86;21048;-84
2022/10/25 04:12:12;;;;;;;28.05;11.10;;;;;;;10.74;100.00;101401.58;1661219;86;21930;-84
2022/10/25 04:14:38;;;;;;;26.15;12.37;;;;;;;10.78;100.00;101404.06;1660954;85;21057;-85
2022/10/25 04:17:04;;;;;;;28.65;11.12;;;;;;;10.83;100.00;101400.66;1661294;86;21000;-86
2022/10/25 04:19:30;;;;;;;27.67;11.65;;;;;;;10.87;100.00;101401.80;1661073;86;20902;-83
2022/10/25 04:21:56;;;;;;;25.15;11.18;;;;;;;10.90;100.00;101401.31;1661435;85;21658;-84
2022/10/25 04:24:22;;;;;;;29.32;12.33;;;;;;;10.94;100.00;101405.16;1674706;82;21258;-84
2022/10/25 04:26:48;;;;;;;31.95;12.50;;;;;;;10.99;100.00;101403.91;1740705;82;20966;-85
2022/10/25 04:29:17;;;;;;;30.68;12.88;;;;;;;11.03;100.00;101410.47;1740509;82;21364;-85
2022/10/25 04:31:43;;;;;;;31.42;12.15;;;;;;;11.08;100.00;101415.12;1739473;82;21069;-85
2022/10/25 04:34:09;;;;;;;31.90;13.68;;;;;;;11.13;100.00;101406.59;1732978;81;20976;-84
2022/10/25 04:36:35;;;;;;;40.17;13.93;;;;;;;11.16;100.00;101399.89;1732974;82;21075;-85
2022/10/25 04:39:01;;;;;;;33.08;13.05;;;;;;;11.18;100.00;101407.73;1733045;82;22504;-83
2022/10/25 04:41:27;;;;;;;34.63;13.38;;;;;;;11.21;100.00;101408.08;1732878;82;20892;-84
2022/10/25 04:43:53;;;;;;;37.33;14.23;;;;;;;11.27;100.00;101412.50;1732738;82;21043;-83
2022/10/25 04:46:19;;;;;;;38.90;13.80;;;;;;;11.34;100.00;101414.49;1733093;82;22423;-84
2022/10/25 04:48:46;;;;;;;37.08;14.50;;;;;;;11.37;100.00;101414.00;1732866;81;21524;-83
2022/10/25 04:51:12;;;;;;;41.55;15.00;;;;;;;11.45;100.00;101416.03;1732857;82;20979;-82
2022/10/25 04:53:39;;;;;;;41.15;14.95;;;;;;;11.48;100.00;101419.05;1732822;82;20968;-89
2022/10/25 04:56:08;;;;;;;41.50;15.03;;;;;;;11.54;100.00;101421.30;1732761;82;21027;-83
2022/10/25 04:58:35;;;;;;;40.98;14.40;;;;;;;11.54;100.00;101415.36;1732828;81;21026;-84
2022/10/25 05:01:08;;;;;;;42.00;14.55;;;;;;;11.59;100.00;101421.39;1732880;82;21229;-85
2022/10/25 05:03:34;;;;;;;42.75;16.07;;;;;;;11.68;100.00;101417.20;1732886;82;26670;-84
2022/10/25 05:06:14;;;;;;;42.23;16.20;;;;;;;11.73;100.00;101419.14;1732921;81;21015;-83
2022/10/25 05:08:42;;;;;;;52.62;19.12;;;;;;;11.79;100.00;101424.91;1732644;81;21094;-84
2022/10/25 05:11:10;;;;;;;49.27;16.52;;;;;;;11.91;100.00;101422.14;1732833;81;21417;-86
2022/10/25 05:13:39;;;;;;;50.90;18.20;;;;;;;12.00;100.00;101417.95;1733086;82;21072;-84
2022/10/25 05:16:06;;;;;;;55.25;18.75;;;;;;;12.15;100.00;101419.53;1733064;82;21082;-84
2022/10/25 05:18:33;;;;;;;52.23;17.98;;;;;;;12.25;100.00;101416.13;1732877;82;21054;-82
2022/10/25 05:21:05;;;;;;;53.55;19.35;;;;;;;12.40;100.00;101420.91;1733616;82;21077;-81
2022/10/25 05:23:33;;;;;;;57.08;21.07;;;;;;;12.58;100.00;101422.48;1732979;82;21090;-84
2022/10/25 05:26:09;;;;;;;59.35;20.62;;;;;;;12.76;100.00;101433.50;1732961;82;22339;-81
2022/10/25 05:28:37;;;;;;;58.98;22.02;;;;;;;12.81;100.00;101434.38;1712683;82;21003;-85
2022/10/25 05:31:07;;;;;;;60.20;22.17;;;;;;;12.84;100.00;101436.57;1732991;82;21069;-82
2022/10/25 05:33:33;;;;;;;59.45;21.82;;;;;;;12.85;100.00;101436.87;1713483;82;21071;-84
2022/10/25 05:36:01;;;;;;;61.20;22.60;;;;;;;12.89;100.00;101432.58;1622368;88;21153;-84
2022/10/25 05:38:29;;;;;;;66.72;23.47;;;;;;;12.93;100.00;101431.52;1622647;88;21532;-85
2022/10/25 05:40:58;;;;;;;60.45;22.73;;;;;;;12.99;100.00;101436.45;1622339;88;21074;-85
2022/10/25 05:43:24;;;;;;;60.70;23.50;;;;;;;13.00;100.00;101438.92;1622534;88;21059;-83
2022/10/25 05:45:51;;;;;;;64.27;23.75;;;;;;;12.99;100.00;101438.62;1626344;86;21631;-83
2022/10/25 05:48:20;;;;;;;68.87;22.67;;;;;;;13.05;100.00;101436.78;1632833;86;21078;-85
2022/10/25 05:50:46;;;;;;;61.20;21.95;;;;;;;13.12;100.00;101436.06;1631559;86;21397;-84
2022/10/25 05:53:12;;;;;;;56.00;21.30;;;;;;;13.15;100.00;101439.61;1634307;86;21154;-84
2022/10/25 05:55:38;;;;;;;54.70;20.52;;;;;;;13.16;100.00;101436.63;1632889;87;21059;-85
2022/10/25 05:58:04;;;;;;;54.50;22.62;;;;;;;13.18;100.00;101441.26;1634900;87;21053;-85
2022/10/25 06:00:30;;;;;;;54.40;22.20;;;;;;;13.22;100.00;101439.39;1630868;86;21138;-87
2022/10/25 06:03:01;;;;;;;56.18;20.95;;;;;;;13.18;100.00;101438.55;1633342;86;21098;-85
2022/10/25 06:05:28;;;;;;;54.10;20.88;;;;;;;13.16;100.00;101432.56;1604663;89;21092;-85
2022/10/25 06:07:54;;;;;;;56.70;21.93;;;;;;;13.18;100.00;101433.14;1658026;84;21075;-84
2022/10/25 06:10:20;;;;;;;57.93;22.82;;;;;;;13.25;100.00;101441.08;1662951;83;21082;-87
2022/10/25 06:12:46;;;;;;;57.00;22.02;;;;;;;13.26;100.00;101447.30;1646080;84;21387;-87
2022/10/25 06:15:12;;;;;;;56.65;23.12;;;;;;;13.28;100.00;101445.16;1671243;83;21033;-86
2022/10/25 06:17:38;;;;;;;51.42;21.12;;;;;;;13.29;100.00;101446.24;1671670;83;20990;-87
2022/10/25 06:20:05;;;;;;;64.20;22.67;;;;;;;13.31;100.00;101444.10;1674528;83;21717;-84
2022/10/25 06:22:31;;;;;;;61.95;22.98;;;;;;;13.37;100.00;101443.61;1673898;84;21043;-86
2022/10/25 06:24:57;;;;;;;55.88;22.20;;;;;;;13.37;100.00;101447.67;1667885;84;20985;-86
2022/10/25 06:27:23;;;;;;;56.88;22.85;;;;;;;13.36;100.00;101448.22;1676769;84;21054;-83
2022/10/25 06:29:49;;;;;;;66.37;23.77;;;;;;;13.46;100.00;101443.96;1682580;83;21068;-85
2022/10/25 06:32:15;;;;;;;62.45;23.57;;;;;;;13.55;100.00;101446.47;1676707;84;21094;-82
2022/10/25 06:34:42;;;;;;;61.15;24.67;;;;;;;13.63;100.00;101450.87;1671286;84;21122;-84
2022/10/25 06:37:08;;;;;;;59.45;22.65;;;;;;;13.64;100.00;101452.50;1678128;84;21042;-86
2022/10/25 06:39:34;;;;;;;62.40;23.00;;;;;;;13.71;100.00;101454.20;1668764;84;21161;-86
2022/10/25 06:42:00;;;;;;;57.55;22.45;;;;;;;13.81;100.00;101448.84;1674825;83;20874;-86
2022/10/25 06:44:26;;;;;;;61.28;21.95;;;;;;;13.86;100.00;101442.11;1670829;84;21521;-85
2022/10/25 06:46:52;;;;;;;62.90;22.93;;;;;;;13.96;100.00;101450.83;1630868;85;21091;-83
2022/10/25 06:49:18;;;;;;;58.00;22.75;;;;;;;13.99;100.00;101442.98;1676185;84;21172;-85
2022/10/25 06:51:44;;;;;;;56.73;22.48;;;;;;;14.00;100.00;101442.45;1677567;84;21152;-84
2022/10/25 06:54:10;;;;;;;55.33;22.07;;;;;;;14.04;100.00;101442.22;1681126;84;20918;-85
2022/10/25 06:56:36;;;;;;;64.47;24.43;;;;;;;14.10;100.00;101441.17;1682284;84;21004;-86
2022/10/25 06:59:06;;;;;;;56.10;21.42;;;;;;;14.14;100.00;101446.87;1685760;84;21073;-86
2022/10/25 07:01:32;;;;;;;52.75;21.65;;;;;;;14.15;100.00;101447.98;1702973;79;21059;-83
2022/10/25 07:03:58;;;;;;;54.63;21.27;;;;;;;14.15;100.00;101441.20;1777203;79;21016;-84
2022/10/25 07:06:34;;;;;;;57.78;21.95;;;;;;;14.23;100.00;101443.39;1773310;79;21055;-85
2022/10/25 07:09:00;;;;;;;;;;;;;;;14.38;100.00;101438.58;1766233;80;21519;-83
2022/10/25 07:11:30;;;;;;;55.10;21.68;;;;;;;14.51;100.00;101436.78;1768878;80;20366;-85
2022/10/25 07:13:58;;;;;;;52.85;21.23;;;;;;;14.65;100.00;101434.41;1770314;80;21066;-84
2022/10/25 07:16:26;;;;;;;45.83;20.57;;;;;;;14.92;100.00;101434.75;1768356;80;21145;-86
2022/10/25 07:19:02;;;;;;;50.58;21.15;;;;;;;14.92;100.00;101434.75;1769886;80;21066;-87
2022/10/25 07:21:30;;;;;;;45.52;19.27;;;;;;;14.96;100.00;101417.64;1766456;80;21099;-85
2022/10/25 07:23:56;;;;;;;40.60;17.70;;;;;;;15.12;100.00;101422.57;1770462;80;21523;-89
2022/10/25 07:26:35;;;;;;;42.58;18.87;;;;;;;15.10;100.00;101384.00;1770239;80;21066;-88
2022/10/25 07:29:03;;;;;;;41.88;17.98;;;;;;;15.61;100.00;101411.69;1751245;80;21125;-89
2022/10/25 07:31:36;;;;;;;45.55;18.23;;;;;;;15.61;100.00;101411.69;1744428;81;21129;-87
2022/10/25 07:34:05;;;;;;;41.45;18.05;;;;;;;15.64;100.00;101410.59;1747880;81;21485;-93
2022/10/25 07:36:33;;;;;;;45.45;19.48;;;;;;;15.75;100.00;101411.98;1737179;81;21555;-87
2022/10/25 07:39:01;;;;;;;40.30;18.52;;;;;;;15.79;100.00;101404.91;1761054;80;21065;-90
2022/10/25 07:41:28;;;;;;;40.17;18.35;;;;;;;15.89;100.00;101398.10;1763821;81;21317;-89
2022/10/25 07:44:10;;;;;;;40.50;18.10;;;;;;;15.99;100.00;101391.81;1756470;80;21461;-90
2022/10/25 07:47:20;;;;;;;;;;;;;;;;;;;;;
2022/10/25 07:53:07;;;;;;;;;;;;;;;;;;;;;
2022/10/25 07:55:43;;;;;;;44.03;20.00;;;;;;;16.38;100.00;101380.23;1510623;94;21570;-88
2022/10/25 07:58:24;;;;;;;43.58;19.32;;;;;;;16.44;100.00;101378.59;1501781;94;21142;-91
2022/10/25 08:04:55;;;;;;;;;;;;;;;;;;;;;
2022/10/25 08:09:49;;;;;;;37.63;15.68;;;;;;;16.50;100.00;101387.00;1364267;103;21236;-90
2022/10/25 08:12:16;;;;;;;33.75;16.00;;;;;;;16.54;100.00;101383.16;1314701;107;21717;-86
2022/10/25 08:14:42;;;;;;;35.63;16.82;;;;;;;16.64;100.00;101390.45;1335039;107;21153;-88
2022/10/25 08:17:08;;;;;;;38.45;15.88;;;;;;;16.67;100.00;101389.33;1334862;107;21245;-90
2022/10/25 08:19:34;;;;;;;32.53;16.23;;;;;;;16.71;100.00;101390.97;1335476;105;21174;-88
2022/10/25 08:22:01;;;;;;;33.80;14.98;;;;;;;16.75;100.00;101390.11;1335030;105;21237;-90
2022/10/25 08:24:27;;;;;;;37.10;15.40;;;;;;;16.76;100.00;101396.39;1352024;105;20995;-87
2022/10/25 08:26:53;;;;;;;35.83;14.73;;;;;;;16.78;100.00;101397.74;1355032;104;21220;-85
2022/10/25 08:29:21;;;;;;;32.65;14.30;;;;;;;16.86;100.00;101396.89;1355059;105;21118;-87
2022/10/25 08:31:47;;;;;;;31.62;13.88;;;;;;;16.88;100.00;101394.69;1329972;107;21241;-90
2022/10/25 08:34:13;;;;;;;32.38;13.95;;;;;;;16.94;100.00;101396.28;1335359;103;21388;-91
2022/10/25 08:36:39;;;;;;;34.85;14.68;;;;;;;17.02;100.00;101395.68;1338863;105;21207;-89
2022/10/25 08:39:05;;;;;;;30.23;14.75;;;;;;;17.08;100.00;101399.99;1334801;105;21191;-92
2022/10/25 08:41:46;;;;;;;36.28;14.63;;;;;;;17.13;100.00;101395.87;1338061;105;21218;-88
2022/10/25 08:44:32;;;;;;;35.48;14.40;;;;;;;17.17;100.00;101395.56;1330513;106;21183;-88
2022/10/25 08:47:20;;;;;;;29.67;14.43;;;;;;;17.24;100.00;101390.63;1347517;104;21663;-88
2022/10/25 08:49:58;;;;;;;35.45;14.13;;;;;;;17.30;100.00;101387.30;1348471;105;21718;-91
2022/10/25 08:52:39;;;;;;;30.68;13.72;;;;;;;17.38;100.00;101391.31;1349314;105;21145;-91
2022/10/25 08:55:15;;;;;;;31.93;13.45;;;;;;;17.52;100.00;101380.56;1433589;98;21977;-89
2022/10/25 08:57:45;;;;;;;28.38;12.10;;;;;;;17.55;100.00;101380.80;1425076;99;21109;-88
2022/10/25 09:00:22;;;;;;;25.55;11.78;;;;;;;17.63;100.00;101380.73;1447618;96;21203;-85
2022/10/25 09:02:58;;;;;;;23.00;10.75;;;;;;;17.74;100.00;101374.64;1480172;95;21147;-88
2022/10/25 09:05:52;;;;;;;23.57;11.53;;;;;;;17.84;100.00;101375.91;1507307;93;21088;-89
2022/10/25 09:08:39;;;;;;;20.32;10.53;;;;;;;17.89;100.00;101367.68;1517947;90;21126;-87
2022/10/25 09:11:17;;;;;;;24.98;11.57;;;;;;;18.01;100.00;101365.36;1579420;90;21086;-87
2022/10/25 09:14:00;;;;;;;25.10;11.63;;;;;;;18.08;100.00;101367.16;1578501;90;22265;-89
2022/10/25 09:16:33;;;;;;;24.18;11.22;;;;;;;18.14;100.00;101364.63;1577993;90;21702;-88
2022/10/25 09:19:02;;;;;;;24.12;10.90;;;;;;;18.21;100.00;101355.31;1535701;93;21276;-87
2022/10/25 09:21:48;;;;;;;22.52;10.50;;;;;;;18.26;100.00;101354.66;1552769;89;21591;-87
2022/10/25 09:24:56;;;;;;;28.10;11.08;;;;;;;18.33;100.00;101344.77;1566168;90;21660;-86
2022/10/25 09:27:38;;;;;;;21.42;9.40;;;;;;;18.47;100.00;101345.67;1548505;92;21348;-87
